Terminal Aerodrome Forecast
Issued by NWS Grand Forks, ND

Home | Current Version | Previous Version | Text Only | Print | Product List | Glossary Off
Versions: 1 2 3 4 5 6 7 8 9 10 11 12 13 14 15 16 17

000
FTUS43 KFGF 011100
TAFGFK
TAF
KGFK 011120Z 0112/0212 25010KT P6SM SCT080
      TEMPO 0114/0118 BKN080
     FM011800 30012KT P6SM BKN040
      TEMPO 0118/0121 -SN BKN020
     FM020000 29008KT P6SM SCT250=

USA.gov is the U.S. government's official web portal to all federal, state and local government web resources and services.